sensor_id;sensor_type;location;lat;lon;timestamp;temperature;humidity
60039;DHT22;45916;52.734;6.544;2023-02-11T00:02:02;7.00;99.90
60039;DHT22;45916;52.734;6.544;2023-02-11T00:04:30;7.00;99.90
60039;DHT22;45916;52.734;6.544;2023-02-11T00:06:56;7.00;99.90
60039;DHT22;45916;52.734;6.544;2023-02-11T00:09:22;7.00;99.90
60039;DHT22;45916;52.734;6.544;2023-02-11T00:11:47;7.00;99.90
60039;DHT22;45916;52.734;6.544;2023-02-11T00:14:13;7.00;99.90
60039;DHT22;45916;52.734;6.544;2023-02-11T00:16:39;7.00;99.90
60039;DHT22;45916;52.734;6.544;2023-02-11T00:19:05;7.00;99.90
60039;DHT22;45916;52.734;6.544;2023-02-11T00:21:32;7.00;99.90
60039;DHT22;45916;52.734;6.544;2023-02-11T00:23:58;7.00;99.90
60039;DHT22;45916;52.734;6.544;2023-02-11T00:26:34;7.00;99.90
60039;DHT22;45916;52.734;6.544;2023-02-11T00:29:01;7.10;99.90
60039;DHT22;45916;52.734;6.544;2023-02-11T00:31:27;7.00;99.90
60039;DHT22;45916;52.734;6.544;2023-02-11T00:33:53;7.00;99.90
60039;DHT22;45916;52.734;6.544;2023-02-11T00:36:22;7.10;99.90
60039;DHT22;45916;52.734;6.544;2023-02-11T00:38:49;7.10;99.90
60039;DHT22;45916;52.734;6.544;2023-02-11T00:41:16;7.10;99.90
60039;DHT22;45916;52.734;6.544;2023-02-11T00:43:42;7.10;99.90
60039;DHT22;45916;52.734;6.544;2023-02-11T00:46:09;7.00;99.90
60039;DHT22;45916;52.734;6.544;2023-02-11T00:48:35;7.00;99.90
60039;DHT22;45916;52.734;6.544;2023-02-11T00:51:01;7.00;99.90
60039;DHT22;45916;52.734;6.544;2023-02-11T00:53:29;7.00;99.90
60039;DHT22;45916;52.734;6.544;2023-02-11T00:55:54;6.90;99.90
60039;DHT22;45916;52.734;6.544;2023-02-11T00:58:20;6.80;99.90
60039;DHT22;45916;52.734;6.544;2023-02-11T01:00:47;6.90;99.90
60039;DHT22;45916;52.734;6.544;2023-02-11T01:03:12;6.80;99.90
60039;DHT22;45916;52.734;6.544;2023-02-11T01:05:38;6.80;99.90
60039;DHT22;45916;52.734;6.544;2023-02-11T01:08:04;6.60;99.90
60039;DHT22;45916;52.734;6.544;2023-02-11T01:10:30;6.60;99.90
60039;DHT22;45916;52.734;6.544;2023-02-11T01:12:56;6.50;99.90
60039;DHT22;45916;52.734;6.544;2023-02-11T01:15:22;6.40;99.90
60039;DHT22;45916;52.734;6.544;2023-02-11T01:17:48;6.40;99.90
60039;DHT22;45916;52.734;6.544;2023-02-11T01:20:21;6.30;99.90
60039;DHT22;45916;52.734;6.544;2023-02-11T01:22:47;6.30;99.90
60039;DHT22;45916;52.734;6.544;2023-02-11T01:25:16;6.30;99.90
60039;DHT22;45916;52.734;6.544;2023-02-11T01:27:41;6.40;99.90
60039;DHT22;45916;52.734;6.544;2023-02-11T01:30:09;6.50;99.90
60039;DHT22;45916;52.734;6.544;2023-02-11T01:32:35;6.60;99.90
60039;DHT22;45916;52.734;6.544;2023-02-11T01:35:01;6.50;99.90
60039;DHT22;45916;52.734;6.544;2023-02-11T01:37:27;6.70;99.90
60039;DHT22;45916;52.734;6.544;2023-02-11T01:39:52;6.70;99.90
60039;DHT22;45916;52.734;6.544;2023-02-11T01:42:20;6.70;99.90
60039;DHT22;45916;52.734;6.544;2023-02-11T01:44:52;6.80;99.90
60039;DHT22;45916;52.734;6.544;2023-02-11T01:47:18;6.80;99.90
60039;DHT22;45916;52.734;6.544;2023-02-11T01:50:22;6.80;99.90
60039;DHT22;45916;52.734;6.544;2023-02-11T01:52:48;6.80;99.90
60039;DHT22;45916;52.734;6.544;2023-02-11T01:55:14;6.80;99.90
60039;DHT22;45916;52.734;6.544;2023-02-11T01:58:01;6.90;99.90
60039;DHT22;45916;52.734;6.544;2023-02-11T02:00:35;6.90;99.90
60039;DHT22;45916;52.734;6.544;2023-02-11T02:05:54;6.80;99.90
60039;DHT22;45916;52.734;6.544;2023-02-11T02:08:44;6.80;99.90
60039;DHT22;45916;52.734;6.544;2023-02-11T02:11:12;6.80;99.90
60039;DHT22;45916;52.734;6.544;2023-02-11T02:13:37;6.90;99.90
60039;DHT22;45916;52.734;6.544;2023-02-11T02:16:06;6.90;99.90
60039;DHT22;45916;52.734;6.544;2023-02-11T02:18:51;6.90;99.90
60039;DHT22;45916;52.734;6.544;2023-02-11T02:33:17;6.90;99.90
60039;DHT22;45916;52.734;6.544;2023-02-11T02:38:22;6.80;99.90
60039;DHT22;45916;52.734;6.544;2023-02-11T02:41:03;6.80;99.90
60039;DHT22;45916;52.734;6.544;2023-02-11T02:43:33;6.80;99.90
60039;DHT22;45916;52.734;6.544;2023-02-11T02:46:20;6.70;99.90
60039;DHT22;45916;52.734;6.544;2023-02-11T02:48:47;6.70;99.90
60039;DHT22;45916;52.734;6.544;2023-02-11T02:51:53;6.70;99.90
60039;DHT22;45916;52.734;6.544;2023-02-11T02:57:52;6.90;99.90
60039;DHT22;45916;52.734;6.544;2023-02-11T03:08:15;7.00;99.90
60039;DHT22;45916;52.734;6.544;2023-02-11T03:10:49;7.10;99.90
60039;DHT22;45916;52.734;6.544;2023-02-11T03:13:18;7.10;99.90
60039;DHT22;45916;52.734;6.544;2023-02-11T03:15:48;7.00;99.90
60039;DHT22;45916;52.734;6.544;2023-02-11T03:18:21;7.10;99.90
60039;DHT22;45916;52.734;6.544;2023-02-11T03:20:50;7.10;99.90
60039;DHT22;45916;52.734;6.544;2023-02-11T03:34:41;7.10;99.90
60039;DHT22;45916;52.734;6.544;2023-02-11T03:37:17;7.20;99.90
60039;DHT22;45916;52.734;6.544;2023-02-11T03:40:00;7.30;99.90
60039;DHT22;45916;52.734;6.544;2023-02-11T03:42:34;7.20;99.90
60039;DHT22;45916;52.734;6.544;2023-02-11T03:45:08;7.20;99.90
60039;DHT22;45916;52.734;6.544;2023-02-11T03:47:37;7.20;99.90
60039;DHT22;45916;52.734;6.544;2023-02-11T03:50:05;7.20;99.90
60039;DHT22;45916;52.734;6.544;2023-02-11T03:52:33;7.20;99.90
60039;DHT22;45916;52.734;6.544;2023-02-11T03:55:02;7.30;99.90
60039;DHT22;45916;52.734;6.544;2023-02-11T03:57:29;7.40;99.90
60039;DHT22;45916;52.734;6.544;2023-02-11T03:59:57;7.30;99.90
60039;DHT22;45916;52.734;6.544;2023-02-11T04:02:29;7.30;99.90
60039;DHT22;45916;52.734;6.544;2023-02-11T04:04:56;7.30;99.90
60039;DHT22;45916;52.734;6.544;2023-02-11T04:07:22;7.30;99.90
60039;DHT22;45916;52.734;6.544;2023-02-11T04:09:48;7.30;99.90
60039;DHT22;45916;52.734;6.544;2023-02-11T04:12:13;7.30;99.90
60039;DHT22;45916;52.734;6.544;2023-02-11T04:14:39;7.30;99.90
60039;DHT22;45916;52.734;6.544;2023-02-11T04:17:05;7.30;99.90
60039;DHT22;45916;52.734;6.544;2023-02-11T04:19:31;7.40;99.90
60039;DHT22;45916;52.734;6.544;2023-02-11T04:21:56;7.40;99.90
60039;DHT22;45916;52.734;6.544;2023-02-11T04:24:22;7.30;99.90
60039;DHT22;45916;52.734;6.544;2023-02-11T04:26:48;7.30;99.90
60039;DHT22;45916;52.734;6.544;2023-02-11T04:29:13;7.30;99.90
60039;DHT22;45916;52.734;6.544;2023-02-11T04:31:39;7.20;99.90
60039;DHT22;45916;52.734;6.544;2023-02-11T04:34:05;7.30;99.90
60039;DHT22;45916;52.734;6.544;2023-02-11T04:36:30;7.30;99.90
60039;DHT22;45916;52.734;6.544;2023-02-11T04:38:56;7.30;99.90
60039;DHT22;45916;52.734;6.544;2023-02-11T04:41:22;7.30;99.90
60039;DHT22;45916;52.734;6.544;2023-02-11T04:43:47;7.30;99.90
60039;DHT22;45916;52.734;6.544;2023-02-11T04:46:13;7.20;99.90
60039;DHT22;45916;52.734;6.544;2023-02-11T04:48:39;7.30;99.90
60039;DHT22;45916;52.734;6.544;2023-02-11T04:51:04;7.30;99.90
60039;DHT22;45916;52.734;6.544;2023-02-11T04:53:30;7.30;99.90
60039;DHT22;45916;52.734;6.544;2023-02-11T04:55:56;7.20;99.90
60039;DHT22;45916;52.734;6.544;2023-02-11T04:58:22;7.30;99.90
60039;DHT22;45916;52.734;6.544;2023-02-11T05:00:48;7.30;99.90
60039;DHT22;45916;52.734;6.544;2023-02-11T05:03:15;7.30;99.90
60039;DHT22;45916;52.734;6.544;2023-02-11T05:05:41;7.30;99.90
60039;DHT22;45916;52.734;6.544;2023-02-11T05:08:08;7.20;99.90
60039;DHT22;45916;52.734;6.544;2023-02-11T05:10:34;7.40;99.90
60039;DHT22;45916;52.734;6.544;2023-02-11T05:13:00;7.30;99.90
60039;DHT22;45916;52.734;6.544;2023-02-11T05:15:26;7.20;99.90
60039;DHT22;45916;52.734;6.544;2023-02-11T05:17:52;7.20;99.90
60039;DHT22;45916;52.734;6.544;2023-02-11T05:20:18;7.20;99.90
60039;DHT22;45916;52.734;6.544;2023-02-11T05:22:44;7.30;99.90
60039;DHT22;45916;52.734;6.544;2023-02-11T05:25:09;7.30;99.90
60039;DHT22;45916;52.734;6.544;2023-02-11T05:27:35;7.30;99.90
60039;DHT22;45916;52.734;6.544;2023-02-11T05:30:01;7.30;99.90
60039;DHT22;45916;52.734;6.544;2023-02-11T05:32:27;7.30;99.90
60039;DHT22;45916;52.734;6.544;2023-02-11T05:34:53;7.30;99.90
60039;DHT22;45916;52.734;6.544;2023-02-11T05:37:18;7.30;99.90
60039;DHT22;45916;52.734;6.544;2023-02-11T05:39:44;7.30;99.90
60039;DHT22;45916;52.734;6.544;2023-02-11T05:42:10;7.40;99.90
60039;DHT22;45916;52.734;6.544;2023-02-11T05:44:36;7.30;99.90
60039;DHT22;45916;52.734;6.544;2023-02-11T05:47:01;7.30;99.90
60039;DHT22;45916;52.734;6.544;2023-02-11T05:49:27;7.30;99.90
60039;DHT22;45916;52.734;6.544;2023-02-11T05:51:53;7.40;99.90
60039;DHT22;45916;52.734;6.544;2023-02-11T05:54:19;7.40;99.90
60039;DHT22;45916;52.734;6.544;2023-02-11T05:56:44;7.40;99.90
60039;DHT22;45916;52.734;6.544;2023-02-11T05:59:12;7.40;99.90
60039;DHT22;45916;52.734;6.544;2023-02-11T06:01:38;7.40;99.90
60039;DHT22;45916;52.734;6.544;2023-02-11T06:04:04;7.40;99.90
60039;DHT22;45916;52.734;6.544;2023-02-11T06:06:30;7.30;99.90
60039;DHT22;45916;52.734;6.544;2023-02-11T06:08:56;7.40;99.90
60039;DHT22;45916;52.734;6.544;2023-02-11T06:11:22;7.40;99.90
60039;DHT22;45916;52.734;6.544;2023-02-11T06:13:47;7.50;99.90
60039;DHT22;45916;52.734;6.544;2023-02-11T06:16:13;7.50;99.90
60039;DHT22;45916;52.734;6.544;2023-02-11T06:18:39;7.50;99.90
60039;DHT22;45916;52.734;6.544;2023-02-11T06:21:09;7.50;99.90
60039;DHT22;45916;52.734;6.544;2023-02-11T06:23:35;7.50;99.90
60039;DHT22;45916;52.734;6.544;2023-02-11T06:26:03;7.60;99.90
60039;DHT22;45916;52.734;6.544;2023-02-11T06:28:29;7.50;99.90
60039;DHT22;45916;52.734;6.544;2023-02-11T06:31:02;7.50;99.90
60039;DHT22;45916;52.734;6.544;2023-02-11T06:33:28;7.50;99.90
60039;DHT22;45916;52.734;6.544;2023-02-11T06:35:54;7.50;99.90
60039;DHT22;45916;52.734;6.544;2023-02-11T06:38:19;7.50;99.90
60039;DHT22;45916;52.734;6.544;2023-02-11T06:40:49;7.50;99.90
60039;DHT22;45916;52.734;6.544;2023-02-11T06:43:15;7.40;99.90
60039;DHT22;45916;52.734;6.544;2023-02-11T06:45:42;7.40;99.90
60039;DHT22;45916;52.734;6.544;2023-02-11T06:48:07;7.40;99.90
60039;DHT22;45916;52.734;6.544;2023-02-11T06:50:33;7.40;99.90
60039;DHT22;45916;52.734;6.544;2023-02-11T06:53:01;7.50;99.90
60039;DHT22;45916;52.734;6.544;2023-02-11T06:55:27;7.50;99.90
60039;DHT22;45916;52.734;6.544;2023-02-11T06:57:53;7.50;99.90
60039;DHT22;45916;52.734;6.544;2023-02-11T07:00:18;7.50;99.90
60039;DHT22;45916;52.734;6.544;2023-02-11T07:02:44;7.40;99.90
60039;DHT22;45916;52.734;6.544;2023-02-11T07:05:10;7.40;99.90
60039;DHT22;45916;52.734;6.544;2023-02-11T07:07:36;7.40;99.90
60039;DHT22;45916;52.734;6.544;2023-02-11T07:10:02;7.40;99.90
60039;DHT22;45916;52.734;6.544;2023-02-11T07:12:29;7.50;99.90
60039;DHT22;45916;52.734;6.544;2023-02-11T07:14:56;7.50;99.90
60039;DHT22;45916;52.734;6.544;2023-02-11T07:17:21;7.50;99.90
60039;DHT22;45916;52.734;6.544;2023-02-11T07:19:47;7.50;99.90
60039;DHT22;45916;52.734;6.544;2023-02-11T07:22:13;7.50;99.90
60039;DHT22;45916;52.734;6.544;2023-02-11T07:24:39;7.50;99.90
60039;DHT22;45916;52.734;6.544;2023-02-11T07:27:04;7.50;99.90
60039;DHT22;45916;52.734;6.544;2023-02-11T07:29:30;7.60;99.90
60039;DHT22;45916;52.734;6.544;2023-02-11T07:31:56;7.50;99.90
60039;DHT22;45916;52.734;6.544;2023-02-11T07:34:21;7.50;99.90
60039;DHT22;45916;52.734;6.544;2023-02-11T07:36:47;7.60;99.90
60039;DHT22;45916;52.734;6.544;2023-02-11T07:39:13;7.60;99.90
60039;DHT22;45916;52.734;6.544;2023-02-11T07:41:39;7.50;99.90
60039;DHT22;45916;52.734;6.544;2023-02-11T07:44:05;7.50;99.90
60039;DHT22;45916;52.734;6.544;2023-02-11T07:46:31;7.60;99.90
60039;DHT22;45916;52.734;6.544;2023-02-11T07:49:02;7.60;99.90
60039;DHT22;45916;52.734;6.544;2023-02-11T07:51:29;7.60;99.90
60039;DHT22;45916;52.734;6.544;2023-02-11T07:53:57;7.70;99.90
60039;DHT22;45916;52.734;6.544;2023-02-11T07:56:23;7.50;99.90
60039;DHT22;45916;52.734;6.544;2023-02-11T07:58:50;7.70;99.90
60039;DHT22;45916;52.734;6.544;2023-02-11T08:01:21;7.80;99.90
60039;DHT22;45916;52.734;6.544;2023-02-11T08:03:49;7.70;99.90
60039;DHT22;45916;52.734;6.544;2023-02-11T08:06:17;7.70;99.90
60039;DHT22;45916;52.734;6.544;2023-02-11T08:08:45;7.80;99.90
60039;DHT22;45916;52.734;6.544;2023-02-11T08:11:19;7.80;99.90
60039;DHT22;45916;52.734;6.544;2023-02-11T08:13:45;7.80;99.90
60039;DHT22;45916;52.734;6.544;2023-02-11T08:16:29;7.80;99.90
60039;DHT22;45916;52.734;6.544;2023-02-11T08:18:56;7.90;99.90
60039;DHT22;45916;52.734;6.544;2023-02-11T08:21:23;7.90;99.90
60039;DHT22;45916;52.734;6.544;2023-02-11T08:23:49;8.00;99.90
60039;DHT22;45916;52.734;6.544;2023-02-11T08:26:17;8.00;99.90
60039;DHT22;45916;52.734;6.544;2023-02-11T08:28:44;8.10;99.90
60039;DHT22;45916;52.734;6.544;2023-02-11T08:31:22;8.20;99.90
60039;DHT22;45916;52.734;6.544;2023-02-11T08:33:48;8.30;99.90
60039;DHT22;45916;52.734;6.544;2023-02-11T08:36:21;8.30;99.90
60039;DHT22;45916;52.734;6.544;2023-02-11T08:38:48;8.40;99.90
60039;DHT22;45916;52.734;6.544;2023-02-11T08:41:14;8.40;99.90
60039;DHT22;45916;52.734;6.544;2023-02-11T08:43:41;8.50;99.90
60039;DHT22;45916;52.734;6.544;2023-02-11T08:46:18;8.50;99.90
60039;DHT22;45916;52.734;6.544;2023-02-11T08:48:44;8.50;99.90
60039;DHT22;45916;52.734;6.544;2023-02-11T08:51:17;8.50;99.90
60039;DHT22;45916;52.734;6.544;2023-02-11T08:53:44;8.60;99.90
60039;DHT22;45916;52.734;6.544;2023-02-11T08:56:14;8.60;99.90
60039;DHT22;45916;52.734;6.544;2023-02-11T08:58:40;8.70;99.90
60039;DHT22;45916;52.734;6.544;2023-02-11T09:01:28;8.60;99.90
60039;DHT22;45916;52.734;6.544;2023-02-11T09:04:14;8.70;99.90
60039;DHT22;45916;52.734;6.544;2023-02-11T09:06:40;8.70;99.90
60039;DHT22;45916;52.734;6.544;2023-02-11T09:09:09;8.70;99.90
60039;DHT22;45916;52.734;6.544;2023-02-11T09:11:36;8.70;99.90
60039;DHT22;45916;52.734;6.544;2023-02-11T09:14:03;8.80;99.90
60039;DHT22;45916;52.734;6.544;2023-02-11T09:16:32;8.80;99.90
60039;DHT22;45916;52.734;6.544;2023-02-11T09:19:00;8.90;99.90
60039;DHT22;45916;52.734;6.544;2023-02-11T09:21:27;8.90;99.90
60039;DHT22;45916;52.734;6.544;2023-02-11T09:23:52;9.00;99.90
60039;DHT22;45916;52.734;6.544;2023-02-11T09:26:24;9.00;99.90
60039;DHT22;45916;52.734;6.544;2023-02-11T09:28:50;9.00;99.90
60039;DHT22;45916;52.734;6.544;2023-02-11T09:31:19;9.10;99.90
60039;DHT22;45916;52.734;6.544;2023-02-11T09:33:47;9.20;99.90
60039;DHT22;45916;52.734;6.544;2023-02-11T09:36:17;9.30;99.90
60039;DHT22;45916;52.734;6.544;2023-02-11T09:38:43;9.50;99.90
60039;DHT22;45916;52.734;6.544;2023-02-11T09:43:55;9.70;99.90
60039;DHT22;45916;52.734;6.544;2023-02-11T09:46:23;9.70;99.90
60039;DHT22;45916;52.734;6.544;2023-02-11T09:48:52;9.70;99.90
60039;DHT22;45916;52.734;6.544;2023-02-11T09:51:42;9.80;99.90
60039;DHT22;45916;52.734;6.544;2023-02-11T09:57:03;9.80;99.90
60039;DHT22;45916;52.734;6.544;2023-02-11T09:59:30;9.80;99.90
60039;DHT22;45916;52.734;6.544;2023-02-11T10:02:21;10.00;99.90
60039;DHT22;45916;52.734;6.544;2023-02-11T10:10:34;9.90;99.90
60039;DHT22;45916;52.734;6.544;2023-02-11T10:16:15;9.90;99.90
60039;DHT22;45916;52.734;6.544;2023-02-11T10:18:51;9.90;99.90
60039;DHT22;45916;52.734;6.544;2023-02-11T10:21:45;9.90;99.90
60039;DHT22;45916;52.734;6.544;2023-02-11T10:24:15;10.00;99.90
60039;DHT22;45916;52.734;6.544;2023-02-11T10:26:42;10.00;99.90
60039;DHT22;45916;52.734;6.544;2023-02-11T10:32:04;10.10;99.90
60039;DHT22;45916;52.734;6.544;2023-02-11T10:34:31;10.10;99.90
60039;DHT22;45916;52.734;6.544;2023-02-11T10:36:57;10.10;99.90
60039;DHT22;45916;52.734;6.544;2023-02-11T10:39:25;10.10;99.90
60039;DHT22;45916;52.734;6.544;2023-02-11T10:41:51;10.10;99.90
60039;DHT22;45916;52.734;6.544;2023-02-11T10:44:58;10.10;99.90
60039;DHT22;45916;52.734;6.544;2023-02-11T10:47:28;10.00;99.90
60039;DHT22;45916;52.734;6.544;2023-02-11T10:49:55;10.00;99.90
60039;DHT22;45916;52.734;6.544;2023-02-11T10:52:29;9.90;99.90
60039;DHT22;45916;52.734;6.544;2023-02-11T10:57:33;9.90;99.90
60039;DHT22;45916;52.734;6.544;2023-02-11T11:02:43;9.90;99.90
60039;DHT22;45916;52.734;6.544;2023-02-11T11:05:18;10.00;99.90
60039;DHT22;45916;52.734;6.544;2023-02-11T11:07:55;10.10;99.90
60039;DHT22;45916;52.734;6.544;2023-02-11T11:10:41;10.20;99.90
60039;DHT22;45916;52.734;6.544;2023-02-11T11:14:12;10.30;99.90
60039;DHT22;45916;52.734;6.544;2023-02-11T11:16:51;10.30;99.90
60039;DHT22;45916;52.734;6.544;2023-02-11T11:21:48;10.60;99.90
60039;DHT22;45916;52.734;6.544;2023-02-11T11:24:27;10.80;99.90
60039;DHT22;45916;52.734;6.544;2023-02-11T11:26:58;10.80;99.90
60039;DHT22;45916;52.734;6.544;2023-02-11T11:29:48;10.90;99.90
60039;DHT22;45916;52.734;6.544;2023-02-11T11:32:30;11.00;99.90
60039;DHT22;45916;52.734;6.544;2023-02-11T11:35:02;11.10;99.90
60039;DHT22;45916;52.734;6.544;2023-02-11T11:37:35;11.10;99.90
60039;DHT22;45916;52.734;6.544;2023-02-11T11:40:22;11.20;99.90
60039;DHT22;45916;52.734;6.544;2023-02-11T11:45:37;11.10;99.90
60039;DHT22;45916;52.734;6.544;2023-02-11T11:50:47;11.10;99.90
60039;DHT22;45916;52.734;6.544;2023-02-11T11:54:18;11.10;99.90
60039;DHT22;45916;52.734;6.544;2023-02-11T11:56:31;11.10;99.90
60039;DHT22;45916;52.734;6.544;2023-02-11T11:59:01;11.10;99.90
60039;DHT22;45916;52.734;6.544;2023-02-11T12:01:31;11.10;99.90
60039;DHT22;45916;52.734;6.544;2023-02-11T12:12:13;11.60;99.90
60039;DHT22;45916;52.734;6.544;2023-02-11T12:17:40;11.60;99.90
60039;DHT22;45916;52.734;6.544;2023-02-11T12:25:50;11.30;99.90
60039;DHT22;45916;52.734;6.544;2023-02-11T12:28:43;11.30;99.90
60039;DHT22;45916;52.734;6.544;2023-02-11T12:34:01;11.20;99.90
60039;DHT22;45916;52.734;6.544;2023-02-11T12:36:44;11.20;99.90
60039;DHT22;45916;52.734;6.544;2023-02-11T12:39:50;11.10;99.90
60039;DHT22;45916;52.734;6.544;2023-02-11T12:50:53;11.10;99.90
60039;DHT22;45916;52.734;6.544;2023-02-11T12:53:31;11.10;99.90
60039;DHT22;45916;52.734;6.544;2023-02-11T12:56:03;11.10;99.90
60039;DHT22;45916;52.734;6.544;2023-02-11T12:58:33;11.10;99.90
60039;DHT22;45916;52.734;6.544;2023-02-11T13:01:04;11.10;99.90
60039;DHT22;45916;52.734;6.544;2023-02-11T13:06:13;11.10;99.90
60039;DHT22;45916;52.734;6.544;2023-02-11T13:08:47;11.10;99.90
60039;DHT22;45916;52.734;6.544;2023-02-11T13:24:52;11.10;99.90
60039;DHT22;45916;52.734;6.544;2023-02-11T13:30:25;11.20;99.90
60039;DHT22;45916;52.734;6.544;2023-02-11T13:37:55;11.30;99.90
60039;DHT22;45916;52.734;6.544;2023-02-11T13:40:27;11.30;99.90
60039;DHT22;45916;52.734;6.544;2023-02-11T13:42:56;11.30;99.90
60039;DHT22;45916;52.734;6.544;2023-02-11T13:48:05;11.20;99.90
60039;DHT22;45916;52.734;6.544;2023-02-11T13:50:37;11.20;99.90
60039;DHT22;45916;52.734;6.544;2023-02-11T13:53:04;11.20;99.90
60039;DHT22;45916;52.734;6.544;2023-02-11T13:55:32;11.10;99.90
60039;DHT22;45916;52.734;6.544;2023-02-11T14:14:15;10.70;99.90
60039;DHT22;45916;52.734;6.544;2023-02-11T14:22:14;10.70;99.90
60039;DHT22;45916;52.734;6.544;2023-02-11T14:24:50;10.80;99.90
60039;DHT22;45916;52.734;6.544;2023-02-11T14:27:27;10.80;99.90
60039;DHT22;45916;52.734;6.544;2023-02-11T14:43:46;10.70;99.90
60039;DHT22;45916;52.734;6.544;2023-02-11T14:46:15;10.60;99.90
60039;DHT22;45916;52.734;6.544;2023-02-11T14:48:47;10.60;99.90
60039;DHT22;45916;52.734;6.544;2023-02-11T14:51:23;10.60;99.90
60039;DHT22;45916;52.734;6.544;2023-02-11T14:53:53;10.50;99.90
60039;DHT22;45916;52.734;6.544;2023-02-11T14:56:26;10.50;99.90
60039;DHT22;45916;52.734;6.544;2023-02-11T14:58:53;10.60;99.90
60039;DHT22;45916;52.734;6.544;2023-02-11T15:01:40;10.50;99.90
60039;DHT22;45916;52.734;6.544;2023-02-11T15:06:47;10.50;99.90
60039;DHT22;45916;52.734;6.544;2023-02-11T15:09:22;10.50;99.90
60039;DHT22;45916;52.734;6.544;2023-02-11T15:11:51;10.40;99.90
60039;DHT22;45916;52.734;6.544;2023-02-11T15:14:47;10.40;99.90
60039;DHT22;45916;52.734;6.544;2023-02-11T15:17:16;10.40;99.90
60039;DHT22;45916;52.734;6.544;2023-02-11T15:19:46;10.40;99.90
60039;DHT22;45916;52.734;6.544;2023-02-11T15:22:18;10.30;99.90
60039;DHT22;45916;52.734;6.544;2023-02-11T15:25:01;10.20;99.90
60039;DHT22;45916;52.734;6.544;2023-02-11T15:27:37;10.20;99.90
60039;DHT22;45916;52.734;6.544;2023-02-11T15:33:18;10.10;99.90
60039;DHT22;45916;52.734;6.544;2023-02-11T15:35:38;10.10;99.90
60039;DHT22;45916;52.734;6.544;2023-02-11T15:38:06;10.00;99.90
60039;DHT22;45916;52.734;6.544;2023-02-11T15:40:34;10.00;99.90
60039;DHT22;45916;52.734;6.544;2023-02-11T15:43:06;9.90;99.90
60039;DHT22;45916;52.734;6.544;2023-02-11T15:48:14;9.90;99.90
60039;DHT22;45916;52.734;6.544;2023-02-11T15:50:42;9.80;99.90
60039;DHT22;45916;52.734;6.544;2023-02-11T15:55:50;9.70;99.90
60039;DHT22;45916;52.734;6.544;2023-02-11T15:58:17;9.80;99.90
60039;DHT22;45916;52.734;6.544;2023-02-11T16:00:51;9.60;99.90
60039;DHT22;45916;52.734;6.544;2023-02-11T16:03:26;9.60;99.90
60039;DHT22;45916;52.734;6.544;2023-02-11T16:05:53;9.50;99.90
60039;DHT22;45916;52.734;6.544;2023-02-11T16:08:26;9.50;99.90
60039;DHT22;45916;52.734;6.544;2023-02-11T16:10:59;9.40;99.90
60039;DHT22;45916;52.734;6.544;2023-02-11T16:13:29;9.40;99.90
60039;DHT22;45916;52.734;6.544;2023-02-11T16:16:22;9.40;99.90
60039;DHT22;45916;52.734;6.544;2023-02-11T16:18:54;9.30;99.90
60039;DHT22;45916;52.734;6.544;2023-02-11T16:21:26;9.20;99.90
60039;DHT22;45916;52.734;6.544;2023-02-11T16:23:55;9.20;99.90
60039;DHT22;45916;52.734;6.544;2023-02-11T16:26:26;9.20;99.90
60039;DHT22;45916;52.734;6.544;2023-02-11T16:29:02;9.20;99.90
60039;DHT22;45916;52.734;6.544;2023-02-11T16:31:33;9.10;99.90
60039;DHT22;45916;52.734;6.544;2023-02-11T16:33:59;9.20;99.90
60039;DHT22;45916;52.734;6.544;2023-02-11T16:36:24;9.00;99.90
60039;DHT22;45916;52.734;6.544;2023-02-11T16:38:50;9.00;99.90
60039;DHT22;45916;52.734;6.544;2023-02-11T16:41:16;9.00;99.90
60039;DHT22;45916;52.734;6.544;2023-02-11T16:43:41;8.90;99.90
60039;DHT22;45916;52.734;6.544;2023-02-11T16:46:09;8.90;99.90
60039;DHT22;45916;52.734;6.544;2023-02-11T16:48:36;8.90;99.90
60039;DHT22;45916;52.734;6.544;2023-02-11T16:51:02;8.80;99.90
60039;DHT22;45916;52.734;6.544;2023-02-11T16:53:28;8.80;99.90
60039;DHT22;45916;52.734;6.544;2023-02-11T16:55:54;8.80;99.90
60039;DHT22;45916;52.734;6.544;2023-02-11T16:58:19;8.80;99.90
60039;DHT22;45916;52.734;6.544;2023-02-11T17:00:46;8.80;99.90
60039;DHT22;45916;52.734;6.544;2023-02-11T17:03:22;8.70;99.90
60039;DHT22;45916;52.734;6.544;2023-02-11T17:05:49;8.60;99.90
60039;DHT22;45916;52.734;6.544;2023-02-11T17:08:16;8.60;99.90
60039;DHT22;45916;52.734;6.544;2023-02-11T17:10:41;8.60;99.90
60039;DHT22;45916;52.734;6.544;2023-02-11T17:13:10;8.60;99.90
60039;DHT22;45916;52.734;6.544;2023-02-11T17:15:35;8.60;99.90
60039;DHT22;45916;52.734;6.544;2023-02-11T17:18:07;8.60;99.90
60039;DHT22;45916;52.734;6.544;2023-02-11T17:20:33;8.60;99.90
60039;DHT22;45916;52.734;6.544;2023-02-11T17:22:59;8.60;99.90
60039;DHT22;45916;52.734;6.544;2023-02-11T17:25:25;8.60;99.90
60039;DHT22;45916;52.734;6.544;2023-02-11T17:27:50;8.60;99.90
60039;DHT22;45916;52.734;6.544;2023-02-11T17:30:16;8.50;99.90
60039;DHT22;45916;52.734;6.544;2023-02-11T17:32:42;8.50;99.90
60039;DHT22;45916;52.734;6.544;2023-02-11T17:35:08;8.50;99.90
60039;DHT22;45916;52.734;6.544;2023-02-11T17:37:33;8.50;99.90
60039;DHT22;45916;52.734;6.544;2023-02-11T17:39:59;8.40;99.90
60039;DHT22;45916;52.734;6.544;2023-02-11T17:42:25;8.50;99.90
60039;DHT22;45916;52.734;6.544;2023-02-11T17:44:52;8.40;99.90
60039;DHT22;45916;52.734;6.544;2023-02-11T17:47:17;8.40;99.90
60039;DHT22;45916;52.734;6.544;2023-02-11T17:49:43;8.50;99.90
60039;DHT22;45916;52.734;6.544;2023-02-11T17:52:09;8.40;99.90
60039;DHT22;45916;52.734;6.544;2023-02-11T17:54:37;8.40;99.90
60039;DHT22;45916;52.734;6.544;2023-02-11T17:57:02;8.40;99.90
60039;DHT22;45916;52.734;6.544;2023-02-11T17:59:28;8.40;99.90
60039;DHT22;45916;52.734;6.544;2023-02-11T18:02:01;8.30;99.90
60039;DHT22;45916;52.734;6.544;2023-02-11T18:04:27;8.30;99.90
60039;DHT22;45916;52.734;6.544;2023-02-11T18:06:52;8.30;99.90
60039;DHT22;45916;52.734;6.544;2023-02-11T18:09:19;8.30;99.90
60039;DHT22;45916;52.734;6.544;2023-02-11T18:11:44;8.20;99.90
60039;DHT22;45916;52.734;6.544;2023-02-11T18:14:11;8.30;99.90
60039;DHT22;45916;52.734;6.544;2023-02-11T18:16:37;8.30;99.90
60039;DHT22;45916;52.734;6.544;2023-02-11T18:19:05;8.30;99.90
60039;DHT22;45916;52.734;6.544;2023-02-11T18:21:32;8.30;99.90
60039;DHT22;45916;52.734;6.544;2023-02-11T18:23:57;8.30;99.90
60039;DHT22;45916;52.734;6.544;2023-02-11T18:26:23;8.20;99.90
60039;DHT22;45916;52.734;6.544;2023-02-11T18:28:53;8.20;99.90
60039;DHT22;45916;52.734;6.544;2023-02-11T18:31:20;8.20;99.90
60039;DHT22;45916;52.734;6.544;2023-02-11T18:33:49;8.20;99.90
60039;DHT22;45916;52.734;6.544;2023-02-11T18:36:17;8.20;99.90
60039;DHT22;45916;52.734;6.544;2023-02-11T18:38:43;8.10;99.90
60039;DHT22;45916;52.734;6.544;2023-02-11T18:41:09;8.20;99.90
60039;DHT22;45916;52.734;6.544;2023-02-11T18:43:36;8.10;99.90
60039;DHT22;45916;52.734;6.544;2023-02-11T18:46:06;8.10;99.90
60039;DHT22;45916;52.734;6.544;2023-02-11T18:48:32;8.10;99.90
60039;DHT22;45916;52.734;6.544;2023-02-11T18:50:58;8.10;99.90